Anthem, Arizona
Current Conditions -  °F | °C
As of 6:53 AM on Saturday 22 Nov 2014 (Local Time) from KDVT Reporting Station
Clear Clear  
Wind Chill:   Ceiling: Unl
Heat Index:   Visibility: 10mi
Dew Point: -4°   Wind: 0mph
Humidity: 51%   Direction: NA
Pressure: 30.04"   Gusts: NA
Location:  33.8348°N, 112.071°W
Report Text: KDVT 221353Z AUTO 00000KT 10SM CLR 05/M04 A3004 RMK AO2 SLP164 T00501044
Loading
Personal Weather Stations






























Interactive Weather Map New forecast layout! Learn more

10-Day Weather Forecast

Advertisements
Track Severe Weather on mobile